ESDF/RNB METAR and TAF weather

Enter ICAO airport designator
Station Type Date Time Source
ESDF METAR 2021/10/20 07:20 UTC NOAA

ESDF 200720Z 22013KT 200V260 2000 -DZ BR OVC002 14/14 Q0998


Station Type Date Time Source
ESDF Decoded METAR 2021/10/20 07:20 UTC NOAA

Ronneby, Sweden (ESDF) 56-16N 015-17E 74M
Oct 20, 2021 - 03:20 AM EDT / 2021.10.20 0720 UTC
Wind: from the SW (220 degrees) at 15 MPH (13 KT) (direction variable):0
Visibility: 1 mile(s):0
Sky conditions: overcast
Weather: light drizzle; mist
Temperature: 57 F (14 C)
Dew Point: 57 F (14 C)
Relative Humidity: 100%
Pressure (altimeter): 29.47 in. Hg (0998 hPa)
ob: ESDF 200720Z 22013KT 200V260 2000 -DZ BR OVC002 14/14 Q0998
cycle: 7

Station Type Date Time Source
ESDF TAF 2018/05/29 12:27 UTC NOAA

TAF TAF ESDF 291425Z 2912/2924 07008KT CAVOK
RMK MIL

Example: see airport list